createdAt,value
2018-09-06T00:01:17.156Z,9.10
2018-09-06T00:03:46.011Z,9.37
2018-09-06T00:06:14.860Z,9.27
2018-09-06T00:08:43.777Z,8.53
2018-09-06T00:11:12.647Z,8.77
2018-09-06T00:13:41.446Z,9.63
2018-09-06T00:16:10.328Z,8.87
2018-09-06T00:18:39.165Z,8.93
2018-09-06T00:21:08.037Z,9.13
2018-09-06T00:23:36.896Z,9.03
2018-09-06T00:26:05.757Z,9.70
2018-09-06T00:28:34.678Z,9.67
2018-09-06T00:31:03.515Z,9.70
2018-09-06T00:33:32.358Z,11.17
2018-09-06T00:36:01.199Z,11.43
2018-09-06T00:38:30.080Z,10.53
2018-09-06T00:40:58.967Z,9.70
2018-09-06T00:43:27.899Z,9.33
2018-09-06T00:45:56.752Z,11.53
2018-09-06T00:48:25.661Z,10.83
2018-09-06T00:50:54.478Z,10.03
2018-09-06T00:53:23.348Z,10.63
2018-09-06T00:55:52.175Z,11.50
2018-09-06T00:58:21.008Z,10.10
2018-09-06T01:00:49.891Z,10.53
2018-09-06T01:03:18.783Z,10.60
2018-09-06T01:05:47.632Z,10.97
2018-09-06T01:08:16.492Z,10.97
2018-09-06T01:10:45.327Z,10.70
2018-09-06T01:13:14.183Z,11.57
2018-09-06T01:15:43.025Z,11.37
2018-09-06T01:18:11.917Z,11.93
2018-09-06T01:20:40.758Z,11.43
2018-09-06T01:23:09.602Z,11.43
2018-09-06T01:25:43.818Z,10.57
2018-09-06T01:28:12.705Z,10.63
2018-09-06T01:30:41.661Z,11.90
2018-09-06T01:33:10.510Z,11.77
2018-09-06T01:35:43.540Z,12.60
2018-09-06T01:38:12.360Z,11.60
2018-09-06T01:40:41.257Z,12.30
2018-09-06T01:43:10.098Z,12.60
2018-09-06T01:45:38.974Z,12.27
2018-09-06T01:48:07.834Z,12.03
2018-09-06T01:50:36.671Z,12.20
2018-09-06T01:53:05.614Z,11.37
2018-09-06T01:55:34.430Z,10.70
2018-09-06T01:58:03.288Z,11.73
2018-09-06T02:00:32.149Z,11.27
2018-09-06T02:03:00.967Z,11.63
2018-09-06T02:05:31.365Z,11.43
2018-09-06T02:08:00.332Z,11.60
2018-09-06T02:10:29.186Z,12.00
2018-09-06T02:12:58.036Z,12.93
2018-09-06T02:15:27.092Z,12.90
2018-09-06T02:17:55.957Z,13.67
2018-09-06T02:20:25.012Z,11.43
2018-09-06T02:22:54.230Z,12.50
2018-09-06T02:25:23.105Z,12.70
2018-09-06T02:27:52.110Z,12.57
2018-09-06T02:30:20.988Z,11.80
2018-09-06T02:32:49.841Z,11.50
2018-09-06T02:35:18.700Z,12.50
2018-09-06T02:37:47.555Z,12.50
2018-09-06T02:40:21.769Z,12.47
2018-09-06T02:42:50.683Z,12.80
2018-09-06T02:45:19.692Z,12.83
2018-09-06T02:47:55.531Z,12.10
2018-09-06T02:50:29.599Z,13.03
2018-09-06T02:52:58.460Z,13.93
2018-09-06T02:55:28.586Z,14.10
2018-09-06T02:57:58.069Z,13.13
2018-09-06T03:00:29.894Z,13.47
2018-09-06T03:02:58.787Z,14.03
2018-09-06T03:05:28.082Z,13.17
2018-09-06T03:07:57.968Z,12.50
2018-09-06T03:10:30.093Z,13.60
2018-09-06T03:12:58.992Z,13.47
2018-09-06T03:15:27.880Z,14.00
2018-09-06T03:17:56.707Z,13.30
2018-09-06T03:20:25.599Z,13.80
2018-09-06T03:22:54.468Z,13.40
2018-09-06T03:25:23.360Z,14.30
2018-09-06T03:27:52.195Z,13.87
2018-09-06T03:30:21.037Z,14.10
2018-09-06T03:32:49.907Z,14.53
2018-09-06T03:35:18.763Z,14.30
2018-09-06T03:37:47.582Z,14.10
2018-09-06T03:40:16.491Z,16.17
2018-09-06T03:42:45.484Z,15.90
2018-09-06T03:45:14.340Z,14.60
2018-09-06T03:47:43.244Z,15.00
2018-09-06T03:50:12.112Z,15.20
2018-09-06T03:52:41.130Z,15.10
2018-09-06T03:55:09.982Z,16.20
2018-09-06T03:57:38.864Z,15.53
2018-09-06T04:00:07.756Z,15.87
2018-09-06T04:02:36.673Z,16.03
2018-09-06T04:05:05.577Z,16.50
2018-09-06T04:07:34.437Z,16.43
2018-09-06T04:10:03.268Z,16.50
2018-09-06T04:12:32.079Z,15.93
2018-09-06T04:15:00.962Z,18.60
2018-09-06T04:17:29.811Z,17.17
2018-09-06T04:19:58.803Z,19.07
2018-09-06T04:22:27.699Z,18.47
2018-09-06T04:24:56.571Z,17.40
2018-09-06T04:27:25.704Z,18.00
2018-09-06T04:29:54.590Z,17.23
2018-09-06T04:32:23.483Z,18.80
2018-09-06T04:34:52.369Z,18.13
2018-09-06T04:37:21.262Z,17.20
2018-09-06T04:39:50.147Z,17.17
2018-09-06T04:42:19.061Z,17.60
2018-09-06T04:44:47.935Z,19.03
2018-09-06T04:47:16.758Z,18.63
2018-09-06T04:49:45.669Z,18.13
2018-09-06T04:52:14.519Z,19.30
2018-09-06T04:54:43.392Z,18.80
2018-09-06T04:57:12.230Z,20.07
2018-09-06T04:59:41.137Z,19.97
2018-09-06T05:02:09.952Z,18.80
2018-09-06T05:04:38.794Z,19.10
2018-09-06T05:07:07.647Z,18.70
2018-09-06T05:09:36.479Z,20.03
2018-09-06T05:12:05.448Z,18.20
2018-09-06T05:14:34.295Z,18.63
2018-09-06T05:17:03.377Z,18.10
2018-09-06T05:19:32.257Z,18.30
2018-09-06T05:22:01.168Z,16.70
2018-09-06T05:24:30.188Z,17.30
2018-09-06T05:26:59.064Z,15.90
2018-09-06T05:29:27.975Z,16.33
2018-09-06T05:31:56.832Z,17.73
2018-09-06T05:34:25.741Z,16.80
2018-09-06T05:36:54.608Z,16.90
2018-09-06T05:39:23.435Z,16.10
2018-09-06T05:41:52.306Z,14.83
2018-09-06T05:44:21.144Z,17.33
2018-09-06T05:46:49.982Z,16.20
2018-09-06T05:49:18.868Z,16.40
2018-09-06T05:51:47.711Z,13.90
2018-09-06T05:54:16.567Z,16.93
2018-09-06T05:56:45.423Z,16.30
2018-09-06T05:59:14.276Z,16.80
2018-09-06T06:01:43.137Z,16.70
2018-09-06T06:04:12.004Z,16.33
2018-09-06T06:06:40.922Z,16.53
2018-09-06T06:09:09.928Z,17.37
2018-09-06T06:11:38.809Z,16.30
2018-09-06T06:14:07.669Z,16.03
2018-09-06T06:16:36.575Z,17.90
2018-09-06T06:19:05.436Z,17.80
2018-09-06T06:21:34.475Z,17.60
2018-09-06T06:24:03.360Z,15.73
2018-09-06T06:26:32.233Z,16.70
2018-09-06T06:29:01.101Z,17.43
2018-09-06T06:31:29.944Z,17.00
2018-09-06T06:33:58.910Z,16.30
2018-09-06T06:36:27.753Z,16.40
2018-09-06T06:38:56.607Z,15.47
2018-09-06T06:41:25.456Z,15.37
2018-09-06T06:43:54.360Z,16.13
2018-09-06T06:46:23.200Z,17.40
2018-09-06T06:48:52.045Z,16.73
2018-09-06T06:51:21.170Z,15.63
2018-09-06T06:53:50.073Z,17.13
2018-09-06T06:56:18.944Z,16.87
2018-09-06T06:58:47.863Z,16.90
2018-09-06T07:01:16.761Z,17.07
2018-09-06T07:03:45.633Z,16.17
2018-09-06T07:06:14.500Z,17.27
2018-09-06T07:08:43.340Z,18.00
2018-09-06T07:11:12.217Z,15.07
2018-09-06T07:13:41.296Z,16.83
2018-09-06T07:16:10.226Z,15.97
2018-09-06T07:18:39.184Z,17.57
2018-09-06T07:21:07.986Z,13.87
2018-09-06T07:23:36.856Z,15.93
2018-09-06T07:26:05.775Z,15.47
2018-09-06T07:28:34.652Z,15.97
2018-09-06T07:31:03.514Z,15.67
2018-09-06T07:33:32.371Z,14.37
2018-09-06T07:36:01.247Z,16.10
2018-09-06T07:38:30.097Z,15.73
2018-09-06T07:40:59.015Z,15.33
2018-09-06T07:43:27.889Z,14.07
2018-09-06T07:45:56.760Z,14.23
2018-09-06T07:48:25.596Z,15.13
2018-09-06T07:50:54.443Z,14.20
2018-09-06T07:53:23.291Z,14.10
2018-09-06T07:55:52.246Z,14.93
2018-09-06T07:58:21.083Z,13.67
2018-09-06T08:00:49.928Z,13.10
2018-09-06T08:03:18.796Z,13.00
2018-09-06T08:05:47.628Z,12.80
2018-09-06T08:08:16.527Z,11.53
2018-09-06T08:10:45.387Z,12.33
2018-09-06T08:13:14.226Z,12.20
2018-09-06T08:15:43.162Z,13.53
2018-09-06T08:18:12.005Z,11.73
2018-09-06T08:20:40.822Z,12.80
2018-09-06T08:23:09.657Z,12.90
2018-09-06T08:25:38.519Z,13.33
2018-09-06T08:28:07.656Z,10.80
2018-09-06T08:30:36.752Z,11.87
2018-09-06T08:33:05.536Z,12.40
2018-09-06T08:35:34.428Z,12.70
2018-09-06T08:38:03.292Z,11.90
2018-09-06T08:40:32.187Z,10.70
2018-09-06T08:43:01.224Z,11.63
2018-09-06T08:45:30.169Z,12.00
2018-09-06T08:47:58.981Z,11.47
2018-09-06T08:50:27.792Z,12.80
2018-09-06T08:52:57.004Z,10.77
2018-09-06T08:55:26.076Z,10.90
2018-09-06T08:57:55.054Z,11.47
2018-09-06T09:00:23.947Z,11.13
2018-09-06T09:02:52.863Z,11.37
2018-09-06T09:05:21.679Z,11.03
2018-09-06T09:07:50.542Z,10.50
2018-09-06T09:10:19.387Z,10.37
2018-09-06T09:12:48.290Z,9.90
2018-09-06T09:15:17.149Z,11.00
2018-09-06T09:17:46.001Z,10.73
2018-09-06T09:20:14.872Z,10.13
2018-09-06T09:22:43.765Z,10.60
2018-09-06T09:25:12.623Z,9.13
2018-09-06T09:27:41.438Z,9.77
2018-09-06T09:30:10.279Z,9.67
2018-09-06T09:32:39.457Z,10.80
2018-09-06T09:35:08.648Z,10.70
2018-09-06T09:37:37.548Z,10.70
2018-09-06T09:40:06.781Z,10.87
2018-09-06T09:42:35.644Z,11.20
2018-09-06T09:45:04.519Z,10.20
2018-09-06T09:50:01.425Z,9.77
2018-09-06T09:52:30.339Z,10.93
2018-09-06T09:54:59.200Z,10.40
2018-09-06T09:57:28.095Z,10.50
2018-09-06T09:59:56.948Z,9.77
2018-09-06T10:02:33.991Z,10.13
2018-09-06T10:05:08.486Z,10.57
2018-09-06T10:07:55.198Z,10.50
2018-09-06T10:10:24.065Z,9.20
2018-09-06T10:12:52.944Z,9.70
2018-09-06T10:15:21.813Z,9.03
2018-09-06T10:17:50.713Z,9.50
2018-09-06T10:20:19.556Z,9.77
2018-09-06T10:22:48.414Z,9.30
2018-09-06T10:25:17.279Z,9.50
2018-09-06T10:27:46.103Z,9.70
2018-09-06T10:30:14.989Z,9.70
2018-09-06T10:32:43.899Z,8.93
2018-09-06T10:35:12.917Z,8.37
2018-09-06T10:37:41.787Z,8.10
2018-09-06T10:40:10.640Z,8.27
2018-09-06T10:42:39.549Z,9.33
2018-09-06T10:45:08.408Z,8.53
2018-09-06T10:47:37.352Z,7.63
2018-09-06T10:50:06.264Z,8.03
2018-09-06T10:52:35.125Z,8.70
2018-09-06T10:55:04.008Z,9.57
2018-09-06T10:57:32.863Z,8.70
2018-09-06T11:00:01.699Z,7.83
2018-09-06T11:02:30.544Z,8.20
2018-09-06T11:04:59.403Z,8.03
2018-09-06T11:07:28.249Z,7.93
2018-09-06T11:09:57.127Z,8.60
2018-09-06T11:12:26.040Z,8.20
2018-09-06T11:14:55.079Z,7.10
2018-09-06T11:17:23.900Z,6.67
2018-09-06T11:19:53.025Z,7.33
2018-09-06T11:22:22.063Z,7.00
2018-09-06T11:24:50.802Z,7.33
2018-09-06T11:27:19.714Z,7.83
2018-09-06T11:29:48.647Z,7.77
2018-09-06T11:32:17.551Z,7.00
2018-09-06T11:34:46.408Z,7.40
2018-09-06T11:37:15.290Z,7.33
2018-09-06T11:39:44.152Z,7.17
2018-09-06T11:42:13.060Z,7.00
2018-09-06T11:44:41.935Z,7.60
2018-09-06T11:47:10.796Z,6.83
2018-09-06T11:49:39.665Z,6.67
2018-09-06T11:52:08.666Z,5.60
2018-09-06T11:54:37.523Z,6.67
2018-09-06T11:57:06.396Z,6.13
2018-09-06T11:59:35.305Z,6.63
2018-09-06T12:02:04.269Z,6.07
2018-09-06T12:04:33.153Z,6.50
2018-09-06T12:07:02.054Z,6.33
2018-09-06T12:09:31.665Z,6.10
2018-09-06T12:12:00.519Z,5.50
2018-09-06T12:14:29.372Z,6.17
2018-09-06T12:16:58.233Z,5.77
2018-09-06T12:19:27.095Z,5.27
2018-09-06T12:21:55.918Z,5.60
2018-09-06T12:24:24.776Z,5.90
2018-09-06T12:26:53.654Z,5.77
2018-09-06T12:29:22.535Z,5.57
2018-09-06T12:31:51.404Z,5.90
2018-09-06T12:34:20.484Z,6.00
2018-09-06T12:36:49.322Z,5.80
2018-09-06T12:39:18.613Z,5.50
2018-09-06T12:41:47.537Z,5.37
2018-09-06T12:44:16.358Z,5.63
2018-09-06T12:46:45.207Z,5.63
2018-09-06T12:49:14.064Z,6.03
2018-09-06T12:51:42.965Z,6.20
2018-09-06T12:54:11.798Z,6.30
2018-09-06T12:56:40.754Z,6.23
2018-09-06T12:59:09.634Z,6.03
2018-09-06T13:01:38.466Z,6.27
2018-09-06T13:04:07.627Z,6.40
2018-09-06T13:06:36.463Z,6.00
2018-09-06T13:09:06.629Z,5.70
2018-09-06T13:11:35.582Z,6.10
2018-09-06T13:14:04.448Z,5.77
2018-09-06T13:16:33.286Z,5.33
2018-09-06T13:19:02.387Z,5.47
2018-09-06T13:21:31.223Z,6.67
2018-09-06T13:24:00.022Z,5.10
2018-09-06T13:26:28.956Z,4.80
2018-09-06T13:28:57.824Z,5.73
2018-09-06T13:31:26.696Z,5.10
2018-09-06T13:33:55.521Z,5.67
2018-09-06T13:36:24.401Z,6.00
2018-09-06T13:38:53.230Z,6.10
2018-09-06T13:41:22.100Z,5.27
2018-09-06T13:43:51.072Z,5.47
2018-09-06T13:46:19.965Z,5.27
2018-09-06T13:48:55.590Z,5.33
2018-09-06T13:51:24.440Z,5.40
2018-09-06T13:53:53.285Z,5.50
2018-09-06T13:56:22.169Z,5.60
2018-09-06T13:58:51.024Z,6.10
2018-09-06T14:01:19.879Z,6.40
2018-09-06T14:03:48.936Z,5.60
2018-09-06T14:06:17.796Z,6.60
2018-09-06T14:08:46.669Z,6.27
2018-09-06T14:11:15.585Z,6.93
2018-09-06T14:13:44.454Z,7.37
2018-09-06T14:16:13.327Z,7.40
2018-09-06T14:18:42.189Z,6.80
2018-09-06T14:21:11.109Z,7.77
2018-09-06T14:23:40.018Z,7.20
2018-09-06T14:26:08.847Z,7.20
2018-09-06T14:28:37.677Z,6.57
2018-09-06T14:31:06.527Z,6.40
2018-09-06T14:33:35.363Z,6.50
2018-09-06T14:36:04.252Z,6.63
2018-09-06T14:38:33.184Z,5.90
2018-09-06T14:41:02.096Z,5.60
2018-09-06T14:43:31.008Z,5.63
2018-09-06T14:45:59.890Z,5.00
2018-09-06T14:48:28.702Z,4.70
2018-09-06T14:50:57.525Z,4.57
2018-09-06T14:53:26.426Z,5.40
2018-09-06T14:55:55.288Z,5.17
2018-09-06T14:58:24.116Z,6.10
2018-09-06T15:00:52.964Z,5.60
2018-09-06T15:03:21.768Z,6.23
2018-09-06T15:05:50.629Z,5.87
2018-09-06T15:08:19.475Z,6.10
2018-09-06T15:10:48.278Z,6.53
2018-09-06T15:13:17.103Z,6.27
2018-09-06T15:15:46.057Z,8.03
2018-09-06T15:18:14.971Z,6.87
2018-09-06T15:20:43.831Z,7.43
2018-09-06T15:23:12.809Z,7.73
2018-09-06T15:25:41.611Z,7.70
2018-09-06T15:28:11.606Z,7.00
2018-09-06T15:30:40.519Z,7.10
2018-09-06T15:33:09.393Z,6.40
2018-09-06T15:35:38.820Z,6.60
2018-09-06T15:38:08.207Z,6.47
2018-09-06T15:40:37.082Z,6.60
2018-09-06T15:43:06.260Z,7.07
2018-09-06T15:45:36.195Z,6.90
2018-09-06T15:48:05.113Z,6.70
2018-09-06T15:50:34.202Z,7.77
2018-09-06T15:53:03.077Z,6.60
2018-09-06T15:55:31.954Z,5.97
2018-09-06T15:58:00.836Z,7.40
2018-09-06T16:00:30.025Z,6.67
2018-09-06T16:02:58.983Z,6.90
2018-09-06T16:05:27.832Z,5.90
2018-09-06T16:07:56.673Z,6.30
2018-09-06T16:10:25.638Z,6.70
2018-09-06T16:12:54.508Z,6.80
2018-09-06T16:15:23.399Z,7.10
2018-09-06T16:17:52.231Z,6.33
2018-09-06T16:20:21.080Z,6.70
2018-09-06T16:22:50.272Z,6.43
2018-09-06T16:25:19.165Z,7.93
2018-09-06T16:27:48.168Z,7.37
2018-09-06T16:30:17.170Z,8.47
2018-09-06T16:32:45.976Z,8.17
2018-09-06T16:35:14.837Z,7.60
2018-09-06T16:37:43.705Z,9.07
2018-09-06T16:40:12.899Z,7.70
2018-09-06T16:42:41.873Z,9.37
2018-09-06T16:45:10.679Z,8.83
2018-09-06T16:47:39.582Z,8.70
2018-09-06T16:50:08.422Z,8.93
2018-09-06T16:52:37.297Z,9.50
2018-09-06T16:55:07.365Z,8.40
2018-09-06T16:57:36.159Z,8.97
2018-09-06T17:00:05.024Z,9.33
2018-09-06T17:02:33.871Z,10.23
2018-09-06T17:05:02.729Z,9.60
2018-09-06T17:07:31.621Z,9.50
2018-09-06T17:10:00.489Z,9.47
2018-09-06T17:12:29.364Z,9.67
2018-09-06T17:14:58.263Z,9.23
2018-09-06T17:17:27.067Z,8.90
2018-09-06T17:19:56.206Z,9.57
2018-09-06T17:22:25.178Z,9.70
2018-09-06T17:24:54.039Z,10.13
2018-09-06T17:27:22.846Z,9.30
2018-09-06T17:29:51.837Z,9.60
2018-09-06T17:32:20.827Z,9.37
2018-09-06T17:34:49.613Z,10.60
2018-09-06T17:37:19.293Z,9.53
2018-09-06T17:39:48.190Z,9.20
2018-09-06T17:42:17.031Z,10.20
2018-09-06T17:44:45.922Z,9.77
2018-09-06T17:47:14.781Z,9.70
2018-09-06T17:49:43.665Z,9.40
2018-09-06T17:52:12.505Z,10.30
2018-09-06T17:54:41.413Z,13.40
2018-09-06T17:57:10.301Z,8.97
2018-09-06T17:59:39.221Z,11.07
2018-09-06T18:02:08.095Z,12.33
2018-09-06T18:04:36.995Z,8.87
2018-09-06T18:07:05.851Z,11.90
2018-09-06T18:09:34.723Z,9.17
2018-09-06T18:12:03.596Z,10.47
2018-09-06T18:14:32.439Z,9.40
2018-09-06T18:17:01.287Z,10.27
2018-09-06T18:19:30.165Z,9.30
2018-09-06T18:21:59.025Z,10.63
2018-09-06T18:24:27.936Z,10.00
2018-09-06T18:26:56.847Z,9.40
2018-09-06T18:29:25.810Z,9.47
2018-09-06T18:31:54.761Z,10.23
2018-09-06T18:34:23.625Z,9.37
2018-09-06T18:36:52.461Z,8.50
2018-09-06T18:39:21.307Z,9.07
2018-09-06T18:41:50.205Z,9.30
2018-09-06T18:44:19.102Z,9.60
2018-09-06T18:46:47.947Z,8.77
2018-09-06T18:49:16.851Z,10.10
2018-09-06T18:51:45.704Z,9.47
2018-09-06T18:54:14.545Z,13.50
2018-09-06T18:56:43.396Z,9.90
2018-09-06T18:59:12.290Z,10.03
2018-09-06T19:01:41.379Z,8.83
2018-09-06T19:04:10.326Z,10.20
2018-09-06T19:06:39.324Z,10.80
2018-09-06T19:09:10.660Z,13.10
2018-09-06T19:11:39.472Z,11.20
2018-09-06T19:14:08.371Z,10.67
2018-09-06T19:16:37.630Z,10.03
2018-09-06T19:19:06.638Z,9.13
2018-09-06T19:21:35.760Z,10.37
2018-09-06T19:24:04.635Z,11.53
2018-09-06T19:26:33.564Z,9.90
2018-09-06T19:29:02.464Z,10.57
2018-09-06T19:31:31.496Z,11.67
2018-09-06T19:34:00.320Z,10.00
2018-09-06T19:36:29.138Z,10.30
2018-09-06T19:38:58.030Z,11.10
2018-09-06T19:41:26.886Z,9.33
2018-09-06T19:43:57.700Z,9.27
2018-09-06T19:46:26.609Z,10.53
2018-09-06T19:48:55.580Z,10.83
2018-09-06T19:51:24.476Z,10.30
2018-09-06T19:53:53.664Z,10.87
2018-09-06T19:56:22.507Z,10.97
2018-09-06T19:58:51.339Z,10.23
2018-09-06T20:01:20.202Z,10.30
2018-09-06T20:03:49.161Z,11.00
2018-09-06T20:06:18.391Z,10.27
2018-09-06T20:08:47.283Z,10.70
2018-09-06T20:11:16.182Z,10.33
2018-09-06T20:13:45.053Z,9.50
2018-09-06T20:16:13.899Z,10.67
2018-09-06T20:18:42.748Z,10.50
2018-09-06T20:21:11.975Z,9.77
2018-09-06T20:23:40.835Z,11.20
2018-09-06T20:26:09.725Z,10.50
2018-09-06T20:28:38.621Z,11.53
2018-09-06T20:31:07.466Z,10.57
2018-09-06T20:33:36.397Z,11.47
2018-09-06T20:36:05.242Z,10.70
2018-09-06T20:38:34.113Z,11.13
2018-09-06T20:41:02.950Z,11.17
2018-09-06T20:43:31.956Z,10.37
2018-09-06T20:46:00.825Z,10.00
2018-09-06T20:48:29.662Z,10.80
2018-09-06T20:50:58.587Z,11.27
2018-09-06T20:53:27.513Z,11.37
2018-09-06T20:55:56.371Z,11.23
2018-09-06T20:58:25.271Z,10.87
2018-09-06T21:00:54.162Z,10.27
2018-09-06T21:03:23.077Z,10.67
2018-09-06T21:05:51.950Z,10.23
2018-09-06T21:08:20.847Z,11.20
2018-09-06T21:10:49.787Z,12.27
2018-09-06T21:13:18.860Z,12.17
2018-09-06T21:15:47.980Z,11.43
2018-09-06T21:18:16.900Z,12.27
2018-09-06T21:20:45.740Z,11.20
2018-09-06T21:23:14.652Z,11.70
2018-09-06T21:25:43.662Z,12.07
2018-09-06T21:28:12.516Z,11.97
2018-09-06T21:30:41.359Z,11.07
2018-09-06T21:33:10.245Z,11.40
2018-09-06T21:35:39.137Z,11.40
2018-09-06T21:38:08.005Z,10.43
2018-09-06T21:40:36.956Z,9.97
2018-09-06T21:43:06.165Z,11.10
2018-09-06T21:45:35.001Z,9.97
2018-09-06T21:48:03.831Z,12.30
2018-09-06T21:50:32.674Z,11.20
2018-09-06T21:53:01.498Z,11.67
2018-09-06T21:55:30.558Z,11.73
2018-09-06T21:57:59.432Z,12.00
2018-09-06T22:00:28.345Z,12.50
2018-09-06T22:03:02.690Z,13.30
2018-09-06T22:05:31.537Z,12.97
2018-09-06T22:08:00.351Z,12.20
2018-09-06T22:10:29.175Z,12.53
2018-09-06T22:12:58.099Z,12.93
2018-09-06T22:15:26.982Z,12.17
2018-09-06T22:17:55.819Z,12.47
2018-09-06T22:20:24.694Z,12.00
2018-09-06T22:22:53.560Z,14.97
2018-09-06T22:25:22.404Z,11.47
2018-09-06T22:27:51.295Z,12.80
2018-09-06T22:30:20.180Z,12.43
2018-09-06T22:32:49.052Z,14.60
2018-09-06T22:35:17.907Z,12.03
2018-09-06T22:37:46.792Z,13.40
2018-09-06T22:40:15.665Z,13.30
2018-09-06T22:42:44.537Z,12.00
2018-09-06T22:45:13.445Z,13.17
2018-09-06T22:47:42.274Z,13.00
2018-09-06T22:50:11.309Z,13.20
2018-09-06T22:52:40.172Z,13.93
2018-09-06T22:55:09.044Z,13.60
2018-09-06T22:57:37.952Z,13.10
2018-09-06T23:00:07.348Z,13.80
2018-09-06T23:02:41.675Z,13.10
2018-09-06T23:05:10.538Z,12.77
2018-09-06T23:07:45.308Z,14.00
2018-09-06T23:10:14.151Z,14.40
2018-09-06T23:12:43.027Z,14.03
2018-09-06T23:15:11.889Z,13.77
2018-09-06T23:17:40.749Z,13.00
2018-09-06T23:20:09.604Z,13.80
2018-09-06T23:22:39.137Z,13.93
2018-09-06T23:25:09.412Z,16.13
2018-09-06T23:27:38.273Z,14.90
2018-09-06T23:30:07.408Z,14.97
2018-09-06T23:32:36.297Z,13.73
2018-09-06T23:35:05.209Z,14.00
2018-09-06T23:37:34.118Z,13.30
2018-09-06T23:40:03.026Z,15.10
2018-09-06T23:42:31.890Z,14.53
2018-09-06T23:45:00.755Z,15.60
2018-09-06T23:47:29.665Z,13.83
2018-09-06T23:49:58.573Z,13.63
2018-09-06T23:52:27.414Z,14.93
2018-09-06T23:54:56.304Z,14.67
2018-09-06T23:57:25.207Z,15.10
2018-09-06T23:59:54.080Z,13.37
